Time;durP1;ratioP1;P1;durP2;ratioP2;P2;SDS_P1;SDS_P2;PMS_P1;PMS_P2;Temp;Humidity;BMP_temperature;BMP_pressure;BME280_temperature;BME280_humidity;BME280_pressure;Samples;Min_cycle;Max_cycle;Signal;HPM_P1;HPM_P2
2022/06/26 00:02:04;;;;;;;6.18;3.90;;;;;;;27.36;39.35;100836.59;5018600;28;20044;-72
2022/06/26 00:04:31;;;;;;;5.90;4.15;;;;;;;27.36;39.53;100828.22;5024570;28;20715;-72
2022/06/26 00:07:00;;;;;;;5.78;3.75;;;;;;;27.37;39.85;100823.50;5025788;28;20041;-72
2022/06/26 00:09:30;;;;;;;4.88;3.63;;;;;;;27.40;41.04;100793.28;5007568;28;20095;-72
2022/06/26 00:11:57;;;;;;;5.85;4.15;;;;;;;27.37;40.40;100778.91;5023714;28;20128;-72
2022/06/26 00:14:24;;;;;;;4.40;3.42;;;;;;;27.37;40.04;100773.31;5003240;28;20079;-72
2022/06/26 00:16:50;;;;;;;6.05;3.85;;;;;;;27.35;40.13;100761.50;5023522;28;20132;-73
2022/06/26 00:19:17;;;;;;;5.10;3.72;;;;;;;27.33;39.98;100780.41;5023497;28;20049;-72
2022/06/26 00:21:44;;;;;;;4.82;3.42;;;;;;;27.30;40.32;100770.53;5007740;28;20449;-72
2022/06/26 00:24:11;;;;;;;5.40;4.13;;;;;;;27.26;40.09;100774.84;5024699;28;20053;-72
2022/06/26 00:26:38;;;;;;;4.97;3.60;;;;;;;27.21;40.67;100767.09;5026249;28;20050;-72
2022/06/26 00:29:05;;;;;;;4.90;3.90;;;;;;;27.18;40.53;100758.28;5022758;28;20049;-73
2022/06/26 00:31:31;;;;;;;4.50;3.45;;;;;;;27.14;40.86;100770.94;5011480;28;20128;-72
2022/06/26 00:33:58;;;;;;;4.97;3.47;;;;;;;27.10;41.13;100790.00;5024287;28;20045;-72
2022/06/26 00:36:25;;;;;;;5.32;3.90;;;;;;;27.07;41.01;100784.88;5020918;28;20566;-73
2022/06/26 00:38:52;;;;;;;4.55;3.33;;;;;;;27.03;41.59;100780.78;5007233;28;20641;-73
2022/06/26 00:41:19;;;;;;;4.63;3.63;;;;;;;27.02;41.78;100778.19;5008445;28;20076;-72
2022/06/26 00:43:46;;;;;;;4.70;3.55;;;;;;;27.00;41.65;100777.56;5009657;28;20045;-72
2022/06/26 00:46:12;;;;;;;4.80;3.10;;;;;;;27.00;41.88;100785.94;5031003;28;20469;-72
2022/06/26 00:48:39;;;;;;;6.25;3.50;;;;;;;26.98;41.22;100788.06;5017353;28;20053;-72
2022/06/26 00:51:06;;;;;;;4.50;3.53;;;;;;;26.97;41.62;100791.91;5030495;28;20039;-72
2022/06/26 00:53:33;;;;;;;5.18;3.47;;;;;;;26.92;41.58;100789.78;5017835;28;20137;-72
2022/06/26 00:55:59;;;;;;;4.78;3.10;;;;;;;26.91;42.00;100784.41;5031074;28;20124;-72
2022/06/26 00:58:28;;;;;;;3.92;3.08;;;;;;;26.89;41.78;100790.16;5012089;28;20133;-72
2022/06/26 01:00:56;;;;;;;4.35;3.03;;;;;;;26.87;42.21;100798.72;5011077;28;20068;-72
2022/06/26 01:03:22;;;;;;;4.85;3.40;;;;;;;26.86;42.53;100819.28;5021482;28;20108;-72
2022/06/26 01:05:49;;;;;;;4.47;3.03;;;;;;;26.86;42.38;100827.66;5030619;28;20054;-73
2022/06/26 01:08:16;;;;;;;5.57;3.72;;;;;;;26.86;42.34;100826.78;5032064;28;20072;-74
2022/06/26 01:10:45;;;;;;;4.25;3.28;;;;;;;26.86;42.45;100826.78;5037456;28;20053;-74
2022/06/26 01:13:12;;;;;;;5.60;3.55;;;;;;;26.85;42.28;100825.06;5032289;28;20061;-74
2022/06/26 01:15:39;;;;;;;5.28;3.70;;;;;;;26.84;42.70;100823.38;5028418;28;20498;-73
2022/06/26 01:18:06;;;;;;;5.50;4.05;;;;;;;26.83;42.44;100821.66;5011668;28;20116;-72
2022/06/26 01:20:33;;;;;;;5.72;3.90;;;;;;;26.83;42.62;100821.66;5023386;28;20490;-72
2022/06/26 01:23:05;;;;;;;4.57;3.75;;;;;;;26.84;43.44;100821.44;5028283;28;20128;-73
2022/06/26 01:25:46;;;;;;;5.18;4.05;;;;;;;26.82;43.10;100823.56;5027668;28;20158;-73
2022/06/26 01:28:14;;;;;;;5.07;3.75;;;;;;;26.79;42.49;100831.47;5025031;28;20144;-73
2022/06/26 01:30:41;;;;;;;4.53;3.70;;;;;;;26.77;42.55;100833.59;5012675;28;20204;-73
2022/06/26 01:33:08;;;;;;;4.80;3.80;;;;;;;26.77;42.70;100848.41;5012506;28;20069;-73
2022/06/26 01:35:35;;;;;;;5.80;4.15;;;;;;;26.76;43.02;100860.63;5009389;28;20141;-73
2022/06/26 01:38:28;;;;;;;5.35;3.65;;;;;;;26.72;43.52;100869.59;5012848;28;20069;-73
2022/06/26 01:40:55;;;;;;;4.55;3.67;;;;;;;26.73;42.80;100871.31;5025155;28;20125;-73
2022/06/26 01:43:26;;;;;;;5.47;3.88;;;;;;;26.74;43.08;100878.63;5013005;28;20049;-73
2022/06/26 01:45:54;;;;;;;5.82;4.38;;;;;;;26.71;42.96;100877.09;5029151;28;20102;-73
2022/06/26 01:48:24;;;;;;;5.90;4.20;;;;;;;26.69;43.23;100881.16;5029506;28;20129;-73
2022/06/26 01:50:52;;;;;;;5.35;4.28;;;;;;;26.68;43.12;100883.09;5024990;28;20138;-73
2022/06/26 01:53:19;;;;;;;5.70;4.45;;;;;;;26.65;43.26;100875.16;5005038;28;20042;-72
2022/06/26 01:55:46;;;;;;;5.63;4.20;;;;;;;26.63;43.26;100880.06;5022471;28;20413;-72
2022/06/26 01:58:13;;;;;;;4.75;3.80;;;;;;;26.62;42.78;100891.41;5027205;28;20049;-72
2022/06/26 02:00:42;;;;;;;6.05;4.07;;;;;;;26.61;43.10;100896.09;5024718;28;20092;-73
2022/06/26 02:03:10;;;;;;;5.68;3.97;;;;;;;26.58;43.15;100890.97;5028750;28;20045;-73
2022/06/26 02:05:37;;;;;;;5.60;3.97;;;;;;;26.56;43.41;100893.09;5029590;28;20049;-73
2022/06/26 02:08:04;;;;;;;5.38;4.22;;;;;;;26.56;43.01;100903.38;5016174;28;20128;-73
2022/06/26 02:16:04;;;;;;;5.07;3.85;;;;;;;26.50;43.48;100891.13;5024047;28;20049;-72
2022/06/26 02:18:32;;;;;;;6.25;4.50;;;;;;;26.47;43.03;100874.84;5028761;28;20055;-73
2022/06/26 02:20:59;;;;;;;5.28;4.45;;;;;;;26.45;43.14;100877.81;5026833;28;20141;-73
2022/06/26 02:23:27;;;;;;;5.85;4.03;;;;;;;26.43;43.27;100871.63;5024973;28;20125;-73
2022/06/26 02:25:54;;;;;;;5.03;3.80;;;;;;;26.41;43.13;100865.38;5028557;28;20045;-73
2022/06/26 02:28:21;;;;;;;5.07;3.92;;;;;;;26.39;43.03;100875.84;5011710;28;20124;-73
2022/06/26 02:30:49;;;;;;;5.50;3.97;;;;;;;26.37;43.33;100872.41;5008395;28;20073;-73
2022/06/26 02:33:15;;;;;;;4.68;3.72;;;;;;;26.35;43.67;100887.63;5016314;28;20042;-73
2022/06/26 02:35:42;;;;;;;5.38;4.30;;;;;;;26.32;43.46;100894.44;5027894;28;20052;-73
2022/06/26 02:38:09;;;;;;;5.45;4.18;;;;;;;26.31;43.62;100898.28;5026964;28;20092;-73
2022/06/26 02:40:36;;;;;;;5.85;4.10;;;;;;;26.29;43.53;100889.28;5023229;28;20466;-73
2022/06/26 02:43:03;;;;;;;5.30;4.05;;;;;;;26.27;43.59;100888.66;5027670;28;20502;-73
2022/06/26 02:45:29;;;;;;;5.15;3.80;;;;;;;26.26;43.67;100878.56;5026914;28;20517;-73
2022/06/26 02:47:56;;;;;;;4.85;4.07;;;;;;;26.25;43.66;100887.09;5028042;28;20049;-73
2022/06/26 02:50:22;;;;;;;5.30;4.05;;;;;;;26.24;43.72;100883.44;5024086;28;20059;-73
2022/06/26 02:52:49;;;;;;;5.40;4.20;;;;;;;26.23;43.45;100884.50;5026735;28;20050;-73
2022/06/26 02:55:16;;;;;;;5.80;4.25;;;;;;;26.22;43.63;100877.22;5018493;28;20534;-73
2022/06/26 02:57:42;;;;;;;5.07;3.83;;;;;;;26.21;43.62;100878.28;5020898;28;20123;-73
2022/06/26 03:00:11;;;;;;;5.45;4.07;;;;;;;26.21;43.75;100878.28;5011122;28;20128;-73
2022/06/26 03:02:38;;;;;;;5.47;3.95;;;;;;;26.19;43.71;100882.34;5026728;28;20052;-73
2022/06/26 03:05:05;;;;;;;5.40;4.22;;;;;;;26.18;43.43;100895.41;5027373;28;20128;-73
2022/06/26 03:07:32;;;;;;;5.90;4.03;;;;;;;26.16;43.49;100897.50;5030286;28;20045;-73
2022/06/26 03:09:59;;;;;;;5.85;4.20;;;;;;;26.15;43.48;100891.09;5024981;28;20049;-73
2022/06/26 03:12:26;;;;;;;5.60;4.03;;;;;;;26.14;43.91;100903.28;5026016;28;20041;-73
2022/06/26 03:14:52;;;;;;;5.18;4.22;;;;;;;26.14;43.73;100907.97;5024922;28;20041;-73
2022/06/26 03:17:19;;;;;;;5.70;3.88;;;;;;;26.13;43.54;100917.38;5015577;28;20490;-73
2022/06/26 03:19:45;;;;;;;4.53;3.78;;;;;;;26.12;43.65;100927.66;5029568;28;20116;-73
2022/06/26 03:22:12;;;;;;;5.40;3.95;;;;;;;26.11;43.58;100936.22;5026736;28;20561;-73
2022/06/26 03:24:38;;;;;;;5.00;4.07;;;;;;;26.10;43.67;100937.31;4988605;28;20136;-73
2022/06/26 03:27:05;;;;;;;6.07;3.75;;;;;;;26.09;43.75;100944.78;5012724;28;20091;-73
2022/06/26 03:29:32;;;;;;;6.75;3.92;;;;;;;26.09;43.58;100955.06;5009043;28;20053;-73
2022/06/26 03:31:59;;;;;;;5.13;3.72;;;;;;;26.07;43.97;100960.81;5009678;28;20061;-73
2022/06/26 03:34:25;;;;;;;6.45;4.68;;;;;;;26.07;44.00;100952.47;5026973;28;20099;-73
2022/06/26 03:36:52;;;;;;;5.60;4.22;;;;;;;26.06;44.25;100938.75;4999070;28;20140;-73
2022/06/26 03:39:18;;;;;;;6.75;4.47;;;;;;;26.05;44.18;100940.66;5023128;28;20136;-73
2022/06/26 03:41:57;;;;;;;5.45;4.22;;;;;;;26.04;44.25;100940.88;5023252;28;20140;-73
2022/06/26 03:44:24;;;;;;;5.80;4.05;;;;;;;26.02;43.90;100943.88;5009171;28;20049;-73
2022/06/26 03:46:51;;;;;;;6.20;4.72;;;;;;;26.02;44.20;100945.78;5022956;28;20539;-73
2022/06/26 03:49:18;;;;;;;6.70;4.68;;;;;;;26.01;44.43;100942.16;5003318;28;20080;-73
2022/06/26 03:51:44;;;;;;;5.70;4.68;;;;;;;26.00;44.05;100940.41;5025118;28;21790;-73
2022/06/26 03:54:11;;;;;;;8.40;5.40;;;;;;;26.01;44.40;100941.28;5026662;28;20065;-73
2022/06/26 03:56:38;;;;;;;6.32;5.13;;;;;;;26.00;44.25;100936.78;5027384;28;20136;-73
2022/06/26 03:59:05;;;;;;;6.25;4.93;;;;;;;25.99;44.33;100947.03;5021125;28;20069;-73
2022/06/26 04:01:31;;;;;;;7.40;5.05;;;;;;;25.99;44.53;100947.03;5012742;28;20567;-73
2022/06/26 04:03:58;;;;;;;6.85;5.05;;;;;;;26.00;44.22;100959.03;5023468;28;20053;-73
2022/06/26 04:06:25;;;;;;;6.30;4.47;;;;;;;25.99;44.17;100966.53;5026926;28;20049;-73
2022/06/26 04:08:51;;;;;;;7.22;5.05;;;;;;;25.99;44.15;100972.09;5021641;28;20077;-73
2022/06/26 04:11:18;;;;;;;5.50;4.15;;;;;;;25.99;44.05;100974.88;5022357;28;20124;-73
2022/06/26 04:13:44;;;;;;;4.65;3.63;;;;;;;25.99;43.45;100974.88;5006793;28;20057;-73
2022/06/26 04:16:11;;;;;;;4.85;3.42;;;;;;;25.98;43.99;100978.72;5022312;28;20045;-73
2022/06/26 04:18:38;;;;;;;4.75;3.97;;;;;;;25.97;43.80;100988.13;5023725;28;20052;-73
2022/06/26 04:21:05;;;;;;;5.38;3.70;;;;;;;25.97;44.12;100976.13;5006078;28;20133;-73
2022/06/26 04:23:32;;;;;;;4.82;3.40;;;;;;;25.94;44.08;100965.41;5038355;23;20164;-73
2022/06/26 04:25:58;;;;;;;7.13;3.45;;;;;;;25.93;43.54;100956.19;4988117;28;20052;-73
2022/06/26 04:28:25;;;;;;;5.03;3.85;;;;;;;25.91;43.98;100951.88;5001135;28;20576;-73
2022/06/26 04:30:51;;;;;;;4.68;3.25;;;;;;;25.90;44.03;100951.03;4988464;28;20038;-73
2022/06/26 04:33:18;;;;;;;4.30;3.00;;;;;;;25.90;43.62;100955.72;5004315;28;20046;-72
2022/06/26 04:35:44;;;;;;;5.00;3.25;;;;;;;25.89;43.68;100973.47;5003674;28;20154;-72
2022/06/26 04:38:11;;;;;;;5.60;3.03;;;;;;;25.86;43.50;100983.06;5003338;28;20140;-73
2022/06/26 04:40:38;;;;;;;4.43;2.75;;;;;;;25.85;42.96;100978.59;5004641;28;20050;-72
2022/06/26 04:43:04;;;;;;;3.50;2.55;;;;;;;25.84;43.02;100982.44;4995246;28;20049;-73
2022/06/26 04:45:34;;;;;;;3.78;2.70;;;;;;;25.81;42.61;100990.28;5005802;28;20046;-72
2022/06/26 04:48:01;;;;;;;4.30;2.42;;;;;;;25.79;42.60;100979.38;5009001;28;20133;-72
2022/06/26 04:50:27;;;;;;;4.05;2.08;;;;;;;25.77;42.46;100981.50;4992453;28;20074;-72
2022/06/26 04:52:54;;;;;;;3.92;2.25;;;;;;;25.74;42.77;100984.69;5007600;28;20051;-73
2022/06/26 04:55:21;;;;;;;3.35;1.90;;;;;;;25.72;42.85;100992.34;5002856;28;20042;-73
2022/06/26 04:57:47;;;;;;;3.03;1.90;;;;;;;25.69;42.52;100998.31;5007053;28;20148;-73
2022/06/26 05:00:15;;;;;;;3.72;1.92;;;;;;;25.66;42.39;100996.78;4987573;28;20137;-72
2022/06/26 05:02:42;;;;;;;2.03;1.50;;;;;;;25.63;42.07;100997.16;5000729;28;20705;-72
2022/06/26 05:05:08;;;;;;;3.85;1.60;;;;;;;25.61;41.70;100999.28;5003407;28;20053;-72
2022/06/26 05:07:35;;;;;;;2.72;1.50;;;;;;;25.57;41.96;101003.50;4987020;28;20558;-72
2022/06/26 05:10:02;;;;;;;3.70;1.90;;;;;;;25.56;41.71;101010.13;4989408;28;20053;-72
2022/06/26 05:12:29;;;;;;;4.53;1.73;;;;;;;25.54;41.90;101006.66;5004563;28;20153;-72
2022/06/26 05:14:55;;;;;;;3.15;1.60;;;;;;;25.53;41.94;101021.63;5005762;28;20038;-72
2022/06/26 05:17:22;;;;;;;3.72;1.60;;;;;;;25.52;41.51;101027.41;5007441;28;20160;-73
2022/06/26 05:19:49;;;;;;;2.88;1.58;;;;;;;25.53;41.91;101026.34;5010549;28;20042;-72
2022/06/26 05:22:15;;;;;;;3.00;1.60;;;;;;;25.53;42.39;101010.50;5006224;28;20077;-72
2022/06/26 05:24:42;;;;;;;2.67;1.60;;;;;;;25.55;42.19;101011.16;5007722;28;20137;-72
2022/06/26 05:27:09;;;;;;;2.90;1.55;;;;;;;25.58;42.03;101019.13;5007955;28;20042;-72
2022/06/26 05:29:41;;;;;;;3.40;1.73;;;;;;;25.60;42.38;101018.97;5006936;28;20068;-73
2022/06/26 05:32:11;;;;;;;4.65;2.03;;;;;;;25.66;42.18;101020.97;5008801;28;20132;-73
2022/06/26 05:34:37;;;;;;;3.63;2.15;;;;;;;25.69;42.08;101027.00;5008070;28;20501;-72
2022/06/26 05:37:04;;;;;;;4.90;2.15;;;;;;;25.73;41.73;101030.22;4997149;28;20129;-72
2022/06/26 05:39:30;;;;;;;3.75;2.03;;;;;;;25.76;41.29;101022.38;4990874;28;20046;-73
2022/06/26 05:41:57;;;;;;;3.85;1.77;;;;;;;25.79;41.32;101029.44;5010937;28;20542;-72
2022/06/26 05:44:28;;;;;;;4.10;1.88;;;;;;;25.81;41.37;101029.25;4991527;28;20061;-73
2022/06/26 05:46:54;;;;;;;3.00;1.70;;;;;;;25.81;41.25;101046.78;4999881;28;20050;-73
2022/06/26 05:49:21;;;;;;;3.50;1.73;;;;;;;25.83;41.06;101055.81;5006996;28;20141;-73
2022/06/26 05:51:47;;;;;;;3.20;1.60;;;;;;;25.83;41.07;101054.94;4996994;28;20128;-72
2022/06/26 05:54:14;;;;;;;3.20;1.63;;;;;;;25.84;40.23;101051.13;4999366;28;20046;-73
2022/06/26 05:56:41;;;;;;;2.45;1.40;;;;;;;25.84;40.45;101062.25;4991015;28;20054;-73
2022/06/26 05:59:07;;;;;;;3.47;1.67;;;;;;;25.83;40.76;101061.38;5006633;28;20053;-72
2022/06/26 06:01:34;;;;;;;3.65;1.55;;;;;;;25.82;40.44;101056.88;5008237;28;20088;-73
2022/06/26 06:04:00;;;;;;;2.65;1.55;;;;;;;25.81;40.96;101059.84;4990349;28;20069;-72
2022/06/26 06:06:27;;;;;;;4.00;1.83;;;;;;;25.80;41.09;101063.69;4997956;28;20057;-72
2022/06/26 06:08:53;;;;;;;2.97;1.55;;;;;;;25.80;40.66;101063.69;5003676;28;20128;-66
2022/06/26 06:11:20;;;;;;;3.17;1.50;;;;;;;25.78;41.09;101064.72;4996161;28;20773;-66
2022/06/26 06:13:47;;;;;;;2.78;1.40;;;;;;;25.79;40.98;101071.16;5000601;28;20589;-66
2022/06/26 06:16:13;;;;;;;2.65;1.60;;;;;;;25.79;41.08;101068.38;5005739;28;20128;-66
2022/06/26 06:18:40;;;;;;;1.90;1.23;;;;;;;25.81;40.90;101076.53;5010256;28;20050;-66
2022/06/26 06:21:10;;;;;;;3.17;1.42;;;;;;;25.82;40.55;101070.78;5009190;28;20743;-66
2022/06/26 06:23:37;;;;;;;2.50;1.52;;;;;;;25.84;41.33;101082.56;5007976;28;20070;-65
2022/06/26 06:26:05;;;;;;;2.55;1.40;;;;;;;25.85;41.10;101084.31;5012614;28;20116;-65
2022/06/26 06:28:32;;;;;;;3.10;1.50;;;;;;;25.86;41.35;101104.66;5005158;28;20081;-66
2022/06/26 06:30:58;;;;;;;3.22;1.70;;;;;;;25.88;41.31;101117.28;5007436;28;20065;-66
2022/06/26 06:33:25;;;;;;;2.70;1.75;;;;;;;25.91;41.53;101113.25;5006037;28;20052;-66
2022/06/26 06:35:54;;;;;;;3.58;1.88;;;;;;;25.94;41.07;101119.28;5006836;28;20069;-66
2022/06/26 06:38:22;;;;;;;3.03;1.90;;;;;;;25.99;41.12;101129.81;4987735;28;20058;-66
2022/06/26 06:40:48;;;;;;;3.80;1.80;;;;;;;26.04;40.99;101119.81;5011234;28;20042;-66
2022/06/26 06:43:15;;;;;;;3.67;1.95;;;;;;;26.10;41.65;101124.63;5007395;28;20483;-66
2022/06/26 06:45:41;;;;;;;2.58;1.40;;;;;;;26.18;41.41;101133.91;5005874;28;20056;-66
2022/06/26 06:48:08;;;;;;;2.67;1.50;;;;;;;26.24;41.35;101139.53;5007737;28;20068;-66
2022/06/26 06:50:36;;;;;;;3.25;1.50;;;;;;;26.33;41.10;101143.94;5009270;28;20073;-66
2022/06/26 06:53:02;;;;;;;2.70;1.52;;;;;;;26.41;40.75;101141.03;5008222;28;20050;-66
2022/06/26 06:55:29;;;;;;;3.15;1.40;;;;;;;26.51;41.07;101152.72;5009408;28;20134;-66
2022/06/26 06:57:56;;;;;;;2.55;1.38;;;;;;;26.60;40.68;101153.44;5000523;28;20046;-66
2022/06/26 07:00:22;;;;;;;2.35;1.17;;;;;;;26.72;40.44;101154.59;4994290;28;20080;-66
2022/06/26 07:02:49;;;;;;;3.60;1.45;;;;;;;26.84;40.23;101163.28;5010154;28;20076;-66
2022/06/26 07:05:19;;;;;;;2.53;1.30;;;;;;;26.95;40.05;101153.53;5015247;28;20096;-66
2022/06/26 07:07:46;;;;;;;2.65;1.40;;;;;;;27.05;40.00;101148.47;5004335;28;20615;-66
2022/06/26 07:10:12;;;;;;;2.60;1.42;;;;;;;27.15;39.73;101143.41;5007621;28;20759;-66
2022/06/26 07:12:39;;;;;;;2.08;1.23;;;;;;;27.23;39.23;101137.66;5003606;28;20132;-66
2022/06/26 07:15:06;;;;;;;3.13;1.50;;;;;;;27.33;38.58;101149.31;4988537;28;20117;-66
2022/06/26 07:17:33;;;;;;;2.17;1.38;;;;;;;27.40;38.74;101149.38;5011205;28;20128;-66
2022/06/26 07:20:00;;;;;;;2.70;1.50;;;;;;;27.44;38.69;101151.53;5008151;28;20116;-66
2022/06/26 07:22:26;;;;;;;3.25;1.50;;;;;;;27.48;38.29;101161.22;5003590;28;20077;-66
2022/06/26 07:24:53;;;;;;;2.45;1.60;;;;;;;27.50;38.68;101161.88;5008413;28;20048;-67
2022/06/26 07:27:19;;;;;;;3.00;1.60;;;;;;;27.51;38.11;101160.78;5013953;28;20431;-66
2022/06/26 07:29:46;;;;;;;2.70;1.50;;;;;;;27.52;38.07;101153.28;5005952;28;20037;-66
2022/06/26 07:32:13;;;;;;;1.88;1.20;;;;;;;27.53;37.82;101155.00;5012182;28;20054;-66
2022/06/26 07:34:39;;;;;;;2.33;1.25;;;;;;;27.53;38.34;101141.94;4980665;28;20073;-66
2022/06/26 07:37:06;;;;;;;2.90;1.80;;;;;;;27.56;37.94;101146.28;5008829;28;20133;-66
2022/06/26 07:39:32;;;;;;;3.60;1.17;;;;;;;27.60;37.86;101145.63;5007366;28;20533;-66
2022/06/26 07:41:59;;;;;;;2.40;1.20;;;;;;;27.64;38.18;101155.31;5006930;28;20128;-67
2022/06/26 07:44:25;;;;;;;2.78;1.40;;;;;;;27.69;37.69;101162.19;5006838;28;20107;-66
2022/06/26 07:46:52;;;;;;;2.80;1.40;;;;;;;27.74;37.55;101168.03;5004846;28;20140;-66
2022/06/26 07:49:18;;;;;;;2.63;1.55;;;;;;;27.79;37.78;101166.34;5005493;28;20073;-67
2022/06/26 07:51:45;;;;;;;1.67;1.00;;;;;;;27.85;37.44;101182.25;5007351;28;20054;-66
2022/06/26 07:54:12;;;;;;;3.33;1.10;;;;;;;27.92;37.36;101185.09;5009305;28;20049;-66
2022/06/26 07:56:38;;;;;;;3.10;1.50;;;;;;;27.97;37.00;101190.91;5009264;28;20081;-67
2022/06/26 07:59:05;;;;;;;1.83;1.10;;;;;;;28.00;37.18;101190.50;5008409;28;20268;-66
2022/06/26 08:01:32;;;;;;;2.63;1.20;;;;;;;28.06;37.02;101195.25;5006663;28;20545;-66
2022/06/26 08:03:58;;;;;;;1.90;1.10;;;;;;;28.11;36.94;101192.66;5005112;28;20451;-66
2022/06/26 08:06:26;;;;;;;2.17;1.20;;;;;;;28.18;36.51;101189.91;5007359;28;20538;-67
2022/06/26 08:08:52;;;;;;;2.47;1.00;;;;;;;28.24;36.38;101198.34;5005037;28;20066;-67
2022/06/26 08:11:20;;;;;;;1.63;1.25;;;;;;;28.31;36.05;101193.63;5001572;28;20141;-66
2022/06/26 08:13:46;;;;;;;2.30;1.27;;;;;;;28.38;35.84;101196.44;5010412;28;20049;-66
2022/06/26 08:16:14;;;;;;;2.13;1.10;;;;;;;28.47;36.09;101192.38;5012169;28;20065;-67
2022/06/26 08:18:41;;;;;;;2.80;1.15;;;;;;;28.57;35.81;101203.16;4988320;28;20057;-67
2022/06/26 08:23:53;;;;;;;2.03;1.10;;;;;;;28.71;35.07;101199.31;5005208;28;20784;-67
2022/06/26 08:26:20;;;;;;;2.20;1.23;;;;;;;28.79;35.45;101199.13;5007645;28;20210;-66
2022/06/26 08:28:46;;;;;;;3.13;1.10;;;;;;;28.85;35.26;101191.81;5006525;28;20104;-66
2022/06/26 08:31:13;;;;;;;2.20;1.20;;;;;;;28.92;34.93;101201.94;5007707;28;20136;-66
2022/06/26 08:33:40;;;;;;;2.33;1.15;;;;;;;28.98;34.62;101201.09;4989252;28;20096;-66
2022/06/26 08:36:07;;;;;;;2.17;1.20;;;;;;;29.03;34.45;101206.03;5007342;28;20176;-66
2022/06/26 08:38:34;;;;;;;2.03;1.10;;;;;;;29.07;34.06;101202.56;5006303;28;20775;-67
2022/06/26 08:41:01;;;;;;;3.22;1.40;;;;;;;29.11;33.94;101195.50;5006416;28;20081;-67
2022/06/26 08:43:28;;;;;;;1.95;1.27;;;;;;;29.15;33.96;101193.13;5008162;28;20042;-67
2022/06/26 08:46:03;;;;;;;2.03;1.10;;;;;;;29.19;33.59;101197.19;4990322;28;20061;-66
2022/06/26 08:48:40;;;;;;;2.70;0.95;;;;;;;29.20;33.48;101195.25;5005867;28;20050;-66
2022/06/26 08:51:07;;;;;;;1.40;0.93;;;;;;;29.17;33.62;101204.94;5007408;28;20046;-66
2022/06/26 08:53:35;;;;;;;1.88;0.98;;;;;;;29.19;33.34;101213.13;5005415;28;20077;-65
2022/06/26 08:56:03;;;;;;;1.58;0.95;;;;;;;29.18;33.26;101214.19;4988756;28;20088;-68
2022/06/26 08:58:30;;;;;;;1.42;0.80;;;;;;;29.18;33.18;101203.00;4991485;28;20472;-65
2022/06/26 09:00:56;;;;;;;2.20;1.02;;;;;;;29.19;33.26;101207.53;4999014;28;20129;-66
2022/06/26 09:03:23;;;;;;;2.03;0.93;;;;;;;29.20;33.33;101210.13;5013826;28;20053;-66
2022/06/26 09:05:49;;;;;;;1.88;0.90;;;;;;;29.22;33.15;101210.75;5007292;28;20052;-64
2022/06/26 09:08:20;;;;;;;2.33;1.05;;;;;;;29.29;32.37;101214.41;5009472;28;20069;-66
2022/06/26 09:10:48;;;;;;;1.85;0.85;;;;;;;29.28;32.86;101209.03;5009784;28;20077;-67
2022/06/26 09:13:14;;;;;;;2.05;0.88;;;;;;;29.29;33.28;101211.63;5008993;28;20129;-69
2022/06/26 09:15:43;;;;;;;1.35;0.95;;;;;;;29.33;32.66;101204.50;5007955;28;20132;-66
2022/06/26 09:18:12;;;;;;;1.60;1.00;;;;;;;29.36;32.58;101208.84;5009555;28;20168;-69
2022/06/26 09:20:51;;;;;;;2.58;0.93;;;;;;;29.36;32.03;101206.91;5010605;28;20104;-66
2022/06/26 09:23:18;;;;;;;1.38;0.90;;;;;;;29.34;32.47;101222.13;5009619;28;20129;-66
2022/06/26 09:25:46;;;;;;;1.27;1.00;;;;;;;29.35;32.46;101223.88;5009575;28;20053;-66
2022/06/26 09:28:18;;;;;;;2.03;1.10;;;;;;;29.38;31.60;101220.69;5009661;28;20133;-66
2022/06/26 09:30:56;;;;;;;2.63;1.10;;;;;;;29.35;31.54;101210.78;5009460;28;20108;-70
2022/06/26 09:33:25;;;;;;;1.45;0.90;;;;;;;29.33;32.24;101215.69;5011165;28;20050;-66
2022/06/26 09:35:53;;;;;;;2.38;1.10;;;;;;;29.33;32.40;101217.63;5010319;28;20534;-66
2022/06/26 09:38:24;;;;;;;2.03;1.10;;;;;;;29.37;31.70;101219.81;5007672;28;20137;-68
2022/06/26 09:40:54;;;;;;;1.70;0.90;;;;;;;29.36;31.87;101215.28;5007862;28;20052;-67
2022/06/26 09:43:34;;;;;;;1.60;1.00;;;;;;;29.42;31.35;101213.56;5011591;28;20463;-72
2022/06/26 09:46:06;;;;;;;2.75;1.05;;;;;;;29.45;31.78;101215.94;5010196;28;20467;-72
2022/06/26 09:48:33;;;;;;;;;;;;;;;29.17;32.80;101218.06;5015441;28;20515;-69
2022/06/26 09:51:01;;;;;;;1.42;0.80;;;;;;;29.49;32.11;101229.25;5006482;28;19968;-71
2022/06/26 09:53:30;;;;;;;1.92;0.85;;;;;;;29.60;31.98;101230.53;5003801;28;20434;-72
2022/06/26 09:55:58;;;;;;;1.50;1.05;;;;;;;29.68;31.63;101229.44;4990722;28;20056;-73
2022/06/26 09:58:27;;;;;;;2.65;1.10;;;;;;;29.75;31.36;101224.69;5010087;28;20069;-70
2022/06/26 10:06:30;;;;;;;1.25;0.90;;;;;;;29.97;31.24;101222.53;5005298;28;20483;-70
2022/06/26 10:08:56;;;;;;;1.85;1.05;;;;;;;30.02;31.07;101225.50;5006456;28;20125;-73
2022/06/26 10:11:27;;;;;;;1.50;0.95;;;;;;;30.08;30.65;101224.59;4993300;28;20133;-70
2022/06/26 10:13:58;;;;;;;2.95;1.10;;;;;;;30.14;30.21;101220.94;5004400;28;20052;-70
2022/06/26 10:16:41;;;;;;;1.80;0.90;;;;;;;30.15;29.67;101217.91;5012765;28;20081;-69
2022/06/26 10:19:22;;;;;;;2.80;1.10;;;;;;;30.16;29.71;101229.97;5008285;28;20458;-70
2022/06/26 10:21:48;;;;;;;2.15;1.10;;;;;;;30.13;29.86;101234.09;5002389;28;20042;-69
2022/06/26 10:24:16;;;;;;;2.63;1.17;;;;;;;30.14;29.75;101240.56;5077113;22;20451;-71
2022/06/26 10:26:58;;;;;;;1.88;1.00;;;;;;;30.14;29.65;101240.56;5005965;28;20167;-71
2022/06/26 10:29:34;;;;;;;1.50;0.95;;;;;;;30.11;29.07;101238.19;5007407;28;20041;-71
2022/06/26 10:32:01;;;;;;;2.08;1.20;;;;;;;30.06;29.30;101246.41;5003496;28;20084;-71
2022/06/26 10:34:28;;;;;;;1.58;1.00;;;;;;;30.02;29.41;101243.16;5003651;28;20553;-71
2022/06/26 10:37:15;;;;;;;1.92;1.00;;;;;;;30.02;28.94;101245.09;5009028;28;20050;-72
2022/06/26 10:39:47;;;;;;;1.95;0.88;;;;;;;29.95;29.38;101250.72;4984795;28;20209;-72
2022/06/26 10:45:06;;;;;;;1.63;0.90;;;;;;;29.81;29.82;101235.03;5008970;28;20046;-72
2022/06/26 10:48:00;;;;;;;1.77;0.95;;;;;;;29.76;29.68;101234.81;5006561;28;20053;-72
2022/06/26 10:50:39;;;;;;;1.73;1.10;;;;;;;29.78;29.59;101239.13;5004788;28;20125;-72
2022/06/26 10:53:16;;;;;;;3.05;0.90;;;;;;;29.76;29.33;101234.81;5009171;28;20060;-71
2022/06/26 10:56:13;;;;;;;1.90;1.23;;;;;;;29.73;29.39;101236.09;5009147;28;20129;-72
2022/06/26 10:58:42;;;;;;;1.27;0.80;;;;;;;29.70;29.19;101236.56;5004803;28;20076;-72
2022/06/26 11:01:11;;;;;;;1.80;1.00;;;;;;;29.68;29.12;101232.25;5009208;28;20141;-72
2022/06/26 11:03:39;;;;;;;2.10;0.90;;;;;;;29.65;28.71;101233.53;4991194;28;20046;-72
2022/06/26 11:06:06;;;;;;;1.05;0.75;;;;;;;29.62;29.31;101227.53;5010604;28;20132;-71
2022/06/26 11:08:35;;;;;;;1.55;0.88;;;;;;;29.63;29.14;101232.03;5005974;28;20046;-72
2022/06/26 11:11:17;;;;;;;3.70;2.22;;;;;;;29.62;28.84;101233.13;5002675;28;20054;-71
2022/06/26 11:13:55;;;;;;;2.35;1.55;;;;;;;29.59;28.38;101230.75;4987560;28;20081;-72
2022/06/26 11:16:31;;;;;;;1.83;1.13;;;;;;;29.59;28.22;101240.00;4993369;28;20161;-71
2022/06/26 11:19:04;;;;;;;3.08;1.05;;;;;;;29.54;28.73;101239.81;5007919;28;20076;-71
2022/06/26 11:21:30;;;;;;;;;;;;;;;29.23;29.45;101236.78;4987067;28;20038;-70
2022/06/26 11:23:57;;;;;;;2.95;0.95;;;;;;;29.46;28.58;101240.91;5007785;28;19967;-70
2022/06/26 11:26:24;;;;;;;4.18;1.98;;;;;;;29.47;28.64;101248.22;5008351;28;20050;-72
2022/06/26 11:28:58;;;;;;;16.77;14.02;;;;;;;29.48;28.06;101247.13;5004204;28;20465;-70
2022/06/26 11:31:27;;;;;;;10.88;8.32;;;;;;;29.44;28.49;101254.25;4997222;28;20093;-71
2022/06/26 11:33:53;;;;;;;5.78;4.47;;;;;;;29.39;28.47;101244.78;5001595;28;20132;-70
2022/06/26 11:36:24;;;;;;;7.70;5.65;;;;;;;29.38;28.73;101255.13;5001784;28;20129;-71
2022/06/26 11:38:54;;;;;;;13.40;10.95;;;;;;;29.38;28.65;101255.13;4986787;28;20484;-71
2022/06/26 11:41:24;;;;;;;12.55;9.82;;;;;;;29.36;28.83;101253.59;5005109;28;20059;-71
2022/06/26 11:43:53;;;;;;;6.18;5.07;;;;;;;29.35;28.58;101254.63;5004889;28;20112;-71
2022/06/26 11:46:21;;;;;;;4.25;3.08;;;;;;;29.30;28.83;101249.69;5010020;28;20085;-71
2022/06/26 11:48:52;;;;;;;3.75;2.05;;;;;;;29.33;29.13;101253.97;4988483;28;20107;-71